sensor_id;sensor_type;location;lat;lon;timestamp;P1;durP1;ratioP1;P2;durP2;ratioP2
57107;SDS011;42987;52.916;6.542;2023-12-20T00:01:49;15.70;;;3.25;;
57107;SDS011;42987;52.916;6.542;2023-12-20T00:04:15;15.93;;;3.65;;
57107;SDS011;42987;52.916;6.542;2023-12-20T00:06:40;21.38;;;3.35;;
57107;SDS011;42987;52.916;6.542;2023-12-20T00:09:06;16.65;;;2.90;;
57107;SDS011;42987;52.916;6.542;2023-12-20T00:11:32;16.33;;;3.40;;
57107;SDS011;42987;52.916;6.542;2023-12-20T00:13:58;16.20;;;3.10;;
57107;SDS011;42987;52.916;6.542;2023-12-20T00:16:23;16.25;;;3.58;;
57107;SDS011;42987;52.916;6.542;2023-12-20T00:18:49;21.65;;;3.38;;
57107;SDS011;42987;52.916;6.542;2023-12-20T00:21:15;22.38;;;3.45;;
57107;SDS011;42987;52.916;6.542;2023-12-20T00:23:41;18.20;;;3.05;;
57107;SDS011;42987;52.916;6.542;2023-12-20T00:26:06;16.35;;;3.22;;
57107;SDS011;42987;52.916;6.542;2023-12-20T00:28:32;18.40;;;3.53;;
57107;SDS011;42987;52.916;6.542;2023-12-20T00:30:58;19.90;;;4.13;;
57107;SDS011;42987;52.916;6.542;2023-12-20T00:33:24;15.95;;;4.18;;
57107;SDS011;42987;52.916;6.542;2023-12-20T00:35:53;19.85;;;3.20;;
57107;SDS011;42987;52.916;6.542;2023-12-20T00:38:18;17.45;;;3.83;;
57107;SDS011;42987;52.916;6.542;2023-12-20T00:40:44;25.30;;;4.28;;
57107;SDS011;42987;52.916;6.542;2023-12-20T00:43:10;17.80;;;3.50;;
57107;SDS011;42987;52.916;6.542;2023-12-20T00:45:36;24.63;;;4.40;;
57107;SDS011;42987;52.916;6.542;2023-12-20T00:48:02;28.70;;;4.50;;
57107;SDS011;42987;52.916;6.542;2023-12-20T00:50:28;16.48;;;3.45;;
57107;SDS011;42987;52.916;6.542;2023-12-20T00:52:54;17.50;;;4.03;;
57107;SDS011;42987;52.916;6.542;2023-12-20T00:55:20;21.55;;;3.72;;
57107;SDS011;42987;52.916;6.542;2023-12-20T00:57:45;20.23;;;3.80;;
57107;SDS011;42987;52.916;6.542;2023-12-20T01:00:12;20.08;;;3.63;;
57107;SDS011;42987;52.916;6.542;2023-12-20T01:02:38;21.45;;;3.78;;
57107;SDS011;42987;52.916;6.542;2023-12-20T01:05:04;19.63;;;3.65;;
57107;SDS011;42987;52.916;6.542;2023-12-20T01:07:30;16.25;;;3.50;;
57107;SDS011;42987;52.916;6.542;2023-12-20T01:09:56;20.55;;;4.10;;
57107;SDS011;42987;52.916;6.542;2023-12-20T01:12:22;18.35;;;3.22;;
57107;SDS011;42987;52.916;6.542;2023-12-20T01:14:47;21.65;;;4.38;;
57107;SDS011;42987;52.916;6.542;2023-12-20T01:17:14;21.02;;;4.10;;
57107;SDS011;42987;52.916;6.542;2023-12-20T01:19:40;17.63;;;3.78;;
57107;SDS011;42987;52.916;6.542;2023-12-20T01:22:05;21.15;;;4.13;;
57107;SDS011;42987;52.916;6.542;2023-12-20T01:24:31;19.20;;;4.28;;
57107;SDS011;42987;52.916;6.542;2023-12-20T01:26:57;17.83;;;4.03;;
57107;SDS011;42987;52.916;6.542;2023-12-20T01:29:23;24.02;;;4.40;;
57107;SDS011;42987;52.916;6.542;2023-12-20T01:31:49;19.27;;;4.00;;
57107;SDS011;42987;52.916;6.542;2023-12-20T01:34:15;20.42;;;3.50;;
57107;SDS011;42987;52.916;6.542;2023-12-20T01:36:41;20.75;;;4.93;;
57107;SDS011;42987;52.916;6.542;2023-12-20T01:39:06;20.30;;;4.25;;
57107;SDS011;42987;52.916;6.542;2023-12-20T01:41:33;19.23;;;3.75;;
57107;SDS011;42987;52.916;6.542;2023-12-20T01:43:58;26.20;;;4.55;;
57107;SDS011;42987;52.916;6.542;2023-12-20T01:46:24;19.85;;;3.88;;
57107;SDS011;42987;52.916;6.542;2023-12-20T01:48:51;20.35;;;4.05;;
57107;SDS011;42987;52.916;6.542;2023-12-20T01:51:17;26.00;;;5.28;;
57107;SDS011;42987;52.916;6.542;2023-12-20T01:53:44;17.13;;;4.38;;
57107;SDS011;42987;52.916;6.542;2023-12-20T01:56:10;20.85;;;4.25;;
57107;SDS011;42987;52.916;6.542;2023-12-20T01:58:38;23.17;;;4.28;;
57107;SDS011;42987;52.916;6.542;2023-12-20T02:01:11;20.90;;;4.28;;
57107;SDS011;42987;52.916;6.542;2023-12-20T02:03:39;23.27;;;4.82;;
57107;SDS011;42987;52.916;6.542;2023-12-20T02:06:08;18.88;;;4.32;;
57107;SDS011;42987;52.916;6.542;2023-12-20T02:08:34;24.85;;;4.93;;
57107;SDS011;42987;52.916;6.542;2023-12-20T02:11:01;29.08;;;5.80;;
57107;SDS011;42987;52.916;6.542;2023-12-20T02:13:27;23.02;;;4.45;;
57107;SDS011;42987;52.916;6.542;2023-12-20T02:15:53;18.58;;;4.60;;
57107;SDS011;42987;52.916;6.542;2023-12-20T02:18:19;23.02;;;4.93;;
57107;SDS011;42987;52.916;6.542;2023-12-20T02:20:45;22.05;;;4.57;;
57107;SDS011;42987;52.916;6.542;2023-12-20T02:23:11;22.63;;;4.53;;
57107;SDS011;42987;52.916;6.542;2023-12-20T02:25:37;19.90;;;4.53;;
57107;SDS011;42987;52.916;6.542;2023-12-20T02:28:03;18.25;;;3.33;;
57107;SDS011;42987;52.916;6.542;2023-12-20T02:30:29;20.17;;;4.82;;
57107;SDS011;42987;52.916;6.542;2023-12-20T02:32:55;20.17;;;4.03;;
57107;SDS011;42987;52.916;6.542;2023-12-20T02:35:21;18.95;;;4.20;;
57107;SDS011;42987;52.916;6.542;2023-12-20T02:37:47;27.13;;;4.95;;
57107;SDS011;42987;52.916;6.542;2023-12-20T02:40:13;31.00;;;5.32;;
57107;SDS011;42987;52.916;6.542;2023-12-20T02:42:38;27.08;;;5.63;;
57107;SDS011;42987;52.916;6.542;2023-12-20T02:45:04;27.40;;;4.35;;
57107;SDS011;42987;52.916;6.542;2023-12-20T02:47:33;28.80;;;4.88;;
57107;SDS011;42987;52.916;6.542;2023-12-20T02:49:59;34.70;;;5.55;;
57107;SDS011;42987;52.916;6.542;2023-12-20T02:52:25;23.85;;;6.50;;
57107;SDS011;42987;52.916;6.542;2023-12-20T02:54:52;31.92;;;5.22;;
57107;SDS011;42987;52.916;6.542;2023-12-20T02:57:18;22.38;;;5.15;;
57107;SDS011;42987;52.916;6.542;2023-12-20T02:59:47;27.65;;;5.60;;
57107;SDS011;42987;52.916;6.542;2023-12-20T03:02:13;29.42;;;5.97;;
57107;SDS011;42987;52.916;6.542;2023-12-20T03:04:38;27.60;;;5.10;;
57107;SDS011;42987;52.916;6.542;2023-12-20T03:07:04;28.15;;;5.70;;
57107;SDS011;42987;52.916;6.542;2023-12-20T03:09:30;27.67;;;5.57;;
57107;SDS011;42987;52.916;6.542;2023-12-20T03:11:55;22.17;;;4.95;;
57107;SDS011;42987;52.916;6.542;2023-12-20T03:14:21;24.58;;;4.90;;
57107;SDS011;42987;52.916;6.542;2023-12-20T03:16:49;24.58;;;5.07;;
57107;SDS011;42987;52.916;6.542;2023-12-20T03:19:16;26.17;;;5.45;;
57107;SDS011;42987;52.916;6.542;2023-12-20T03:21:42;35.03;;;5.97;;
57107;SDS011;42987;52.916;6.542;2023-12-20T03:24:08;30.08;;;6.15;;
57107;SDS011;42987;52.916;6.542;2023-12-20T03:26:34;25.83;;;5.43;;
57107;SDS011;42987;52.916;6.542;2023-12-20T03:28:59;32.08;;;6.55;;
57107;SDS011;42987;52.916;6.542;2023-12-20T03:31:25;29.55;;;6.07;;
57107;SDS011;42987;52.916;6.542;2023-12-20T03:33:51;30.60;;;6.20;;
57107;SDS011;42987;52.916;6.542;2023-12-20T03:36:18;31.20;;;6.60;;
57107;SDS011;42987;52.916;6.542;2023-12-20T03:38:45;28.05;;;5.80;;
57107;SDS011;42987;52.916;6.542;2023-12-20T03:41:11;34.97;;;6.20;;
57107;SDS011;42987;52.916;6.542;2023-12-20T03:43:36;33.25;;;6.40;;
57107;SDS011;42987;52.916;6.542;2023-12-20T03:46:02;27.83;;;5.65;;
57107;SDS011;42987;52.916;6.542;2023-12-20T03:48:29;28.77;;;6.40;;
57107;SDS011;42987;52.916;6.542;2023-12-20T03:50:58;28.42;;;6.82;;
57107;SDS011;42987;52.916;6.542;2023-12-20T03:53:24;32.03;;;6.88;;
57107;SDS011;42987;52.916;6.542;2023-12-20T03:55:49;25.75;;;6.30;;
57107;SDS011;42987;52.916;6.542;2023-12-20T03:58:15;29.80;;;6.25;;
57107;SDS011;42987;52.916;6.542;2023-12-20T04:00:41;38.38;;;6.85;;
57107;SDS011;42987;52.916;6.542;2023-12-20T04:03:07;28.60;;;6.00;;
57107;SDS011;42987;52.916;6.542;2023-12-20T04:05:32;35.10;;;7.25;;
57107;SDS011;42987;52.916;6.542;2023-12-20T04:07:59;32.28;;;6.80;;
57107;SDS011;42987;52.916;6.542;2023-12-20T04:10:26;42.47;;;7.55;;
57107;SDS011;42987;52.916;6.542;2023-12-20T04:12:53;29.48;;;6.57;;
57107;SDS011;42987;52.916;6.542;2023-12-20T04:15:20;31.77;;;6.93;;
57107;SDS011;42987;52.916;6.542;2023-12-20T04:17:45;30.15;;;6.22;;
57107;SDS011;42987;52.916;6.542;2023-12-20T04:20:11;30.15;;;5.60;;
57107;SDS011;42987;52.916;6.542;2023-12-20T04:22:37;27.67;;;6.07;;
57107;SDS011;42987;52.916;6.542;2023-12-20T04:25:02;32.90;;;6.43;;
57107;SDS011;42987;52.916;6.542;2023-12-20T04:27:28;30.70;;;7.00;;
57107;SDS011;42987;52.916;6.542;2023-12-20T04:29:54;30.60;;;6.70;;
57107;SDS011;42987;52.916;6.542;2023-12-20T04:32:20;34.65;;;6.90;;
57107;SDS011;42987;52.916;6.542;2023-12-20T04:34:45;30.15;;;6.90;;
57107;SDS011;42987;52.916;6.542;2023-12-20T04:37:11;27.38;;;6.43;;
57107;SDS011;42987;52.916;6.542;2023-12-20T04:39:37;29.38;;;6.32;;
57107;SDS011;42987;52.916;6.542;2023-12-20T04:42:04;40.38;;;7.15;;
57107;SDS011;42987;52.916;6.542;2023-12-20T04:44:30;36.08;;;7.60;;
57107;SDS011;42987;52.916;6.542;2023-12-20T04:46:55;32.40;;;7.43;;
57107;SDS011;42987;52.916;6.542;2023-12-20T04:49:21;30.20;;;6.63;;
57107;SDS011;42987;52.916;6.542;2023-12-20T04:51:47;32.00;;;5.85;;
57107;SDS011;42987;52.916;6.542;2023-12-20T04:54:13;31.23;;;6.55;;
57107;SDS011;42987;52.916;6.542;2023-12-20T04:56:39;27.02;;;6.13;;
57107;SDS011;42987;52.916;6.542;2023-12-20T04:59:04;30.00;;;6.43;;
57107;SDS011;42987;52.916;6.542;2023-12-20T05:01:30;31.77;;;6.60;;
57107;SDS011;42987;52.916;6.542;2023-12-20T05:03:56;36.75;;;5.93;;
57107;SDS011;42987;52.916;6.542;2023-12-20T05:06:22;38.00;;;7.18;;
57107;SDS011;42987;52.916;6.542;2023-12-20T05:08:47;30.00;;;6.30;;
57107;SDS011;42987;52.916;6.542;2023-12-20T05:11:13;29.75;;;6.85;;
57107;SDS011;42987;52.916;6.542;2023-12-20T05:13:40;26.48;;;6.05;;
57107;SDS011;42987;52.916;6.542;2023-12-20T05:16:09;30.50;;;7.15;;
57107;SDS011;42987;52.916;6.542;2023-12-20T05:18:34;28.85;;;6.47;;
57107;SDS011;42987;52.916;6.542;2023-12-20T05:21:00;27.58;;;6.70;;
57107;SDS011;42987;52.916;6.542;2023-12-20T05:23:26;31.65;;;7.28;;
57107;SDS011;42987;52.916;6.542;2023-12-20T05:25:52;28.35;;;7.15;;
57107;SDS011;42987;52.916;6.542;2023-12-20T05:28:17;31.15;;;6.05;;
57107;SDS011;42987;52.916;6.542;2023-12-20T05:30:43;27.92;;;6.03;;
57107;SDS011;42987;52.916;6.542;2023-12-20T05:33:09;30.08;;;6.45;;
57107;SDS011;42987;52.916;6.542;2023-12-20T05:35:35;29.10;;;6.13;;
57107;SDS011;42987;52.916;6.542;2023-12-20T05:38:00;31.88;;;6.47;;
57107;SDS011;42987;52.916;6.542;2023-12-20T05:40:26;30.17;;;6.40;;
57107;SDS011;42987;52.916;6.542;2023-12-20T05:42:52;20.90;;;5.28;;
57107;SDS011;42987;52.916;6.542;2023-12-20T05:45:18;32.00;;;6.38;;
57107;SDS011;42987;52.916;6.542;2023-12-20T05:47:43;24.90;;;6.15;;
57107;SDS011;42987;52.916;6.542;2023-12-20T05:50:09;25.30;;;6.53;;
57107;SDS011;42987;52.916;6.542;2023-12-20T05:52:35;27.05;;;7.00;;
57107;SDS011;42987;52.916;6.542;2023-12-20T05:55:00;27.45;;;6.25;;
57107;SDS011;42987;52.916;6.542;2023-12-20T05:57:26;27.77;;;6.55;;
57107;SDS011;42987;52.916;6.542;2023-12-20T05:59:52;27.48;;;6.32;;
57107;SDS011;42987;52.916;6.542;2023-12-20T06:02:18;27.25;;;6.25;;
57107;SDS011;42987;52.916;6.542;2023-12-20T06:04:44;24.00;;;6.10;;
57107;SDS011;42987;52.916;6.542;2023-12-20T06:07:13;31.08;;;7.10;;
57107;SDS011;42987;52.916;6.542;2023-12-20T06:09:39;27.65;;;6.13;;
57107;SDS011;42987;52.916;6.542;2023-12-20T06:12:07;24.02;;;5.63;;
57107;SDS011;42987;52.916;6.542;2023-12-20T06:14:33;29.70;;;6.43;;
57107;SDS011;42987;52.916;6.542;2023-12-20T06:17:00;26.58;;;5.55;;
57107;SDS011;42987;52.916;6.542;2023-12-20T06:19:26;27.67;;;7.03;;
57107;SDS011;42987;52.916;6.542;2023-12-20T06:21:52;32.30;;;5.45;;
57107;SDS011;42987;52.916;6.542;2023-12-20T06:24:18;32.22;;;7.05;;
57107;SDS011;42987;52.916;6.542;2023-12-20T06:26:43;26.65;;;5.90;;
57107;SDS011;42987;52.916;6.542;2023-12-20T06:29:09;25.52;;;5.82;;
57107;SDS011;42987;52.916;6.542;2023-12-20T06:31:35;29.42;;;5.93;;
57107;SDS011;42987;52.916;6.542;2023-12-20T06:34:01;26.90;;;6.38;;
57107;SDS011;42987;52.916;6.542;2023-12-20T06:36:27;26.70;;;5.60;;
57107;SDS011;42987;52.916;6.542;2023-12-20T06:38:53;24.40;;;5.97;;
57107;SDS011;42987;52.916;6.542;2023-12-20T06:41:18;27.52;;;6.45;;
57107;SDS011;42987;52.916;6.542;2023-12-20T06:43:44;23.13;;;6.10;;
57107;SDS011;42987;52.916;6.542;2023-12-20T06:46:10;35.13;;;6.80;;
57107;SDS011;42987;52.916;6.542;2023-12-20T06:48:38;24.50;;;5.95;;
57107;SDS011;42987;52.916;6.542;2023-12-20T06:51:05;22.83;;;6.03;;
57107;SDS011;42987;52.916;6.542;2023-12-20T06:53:30;25.63;;;5.82;;
57107;SDS011;42987;52.916;6.542;2023-12-20T06:55:56;27.15;;;5.90;;
57107;SDS011;42987;52.916;6.542;2023-12-20T06:58:22;23.73;;;5.93;;
57107;SDS011;42987;52.916;6.542;2023-12-20T07:00:48;27.42;;;5.45;;
57107;SDS011;42987;52.916;6.542;2023-12-20T07:03:14;24.08;;;5.20;;
57107;SDS011;42987;52.916;6.542;2023-12-20T07:05:40;28.38;;;6.18;;
57107;SDS011;42987;52.916;6.542;2023-12-20T07:08:06;21.77;;;5.25;;
57107;SDS011;42987;52.916;6.542;2023-12-20T07:10:32;24.23;;;4.97;;
57107;SDS011;42987;52.916;6.542;2023-12-20T07:12:58;29.10;;;6.05;;
57107;SDS011;42987;52.916;6.542;2023-12-20T07:15:24;24.63;;;6.10;;
57107;SDS011;42987;52.916;6.542;2023-12-20T07:17:49;27.80;;;6.57;;
57107;SDS011;42987;52.916;6.542;2023-12-20T07:20:15;23.63;;;5.97;;
57107;SDS011;42987;52.916;6.542;2023-12-20T07:22:41;28.33;;;5.57;;
57107;SDS011;42987;52.916;6.542;2023-12-20T07:25:07;29.98;;;7.18;;
57107;SDS011;42987;52.916;6.542;2023-12-20T07:27:33;28.80;;;6.38;;
57107;SDS011;42987;52.916;6.542;2023-12-20T07:29:59;26.02;;;5.88;;
57107;SDS011;42987;52.916;6.542;2023-12-20T07:32:25;24.33;;;6.40;;
57107;SDS011;42987;52.916;6.542;2023-12-20T07:34:51;28.27;;;6.25;;
57107;SDS011;42987;52.916;6.542;2023-12-20T07:37:17;22.30;;;6.10;;
57107;SDS011;42987;52.916;6.542;2023-12-20T07:39:42;24.73;;;5.95;;
57107;SDS011;42987;52.916;6.542;2023-12-20T07:42:08;23.20;;;6.13;;
57107;SDS011;42987;52.916;6.542;2023-12-20T07:44:34;23.38;;;6.72;;
57107;SDS011;42987;52.916;6.542;2023-12-20T07:47:03;27.20;;;6.20;;
57107;SDS011;42987;52.916;6.542;2023-12-20T07:49:32;28.02;;;6.32;;
57107;SDS011;42987;52.916;6.542;2023-12-20T07:51:58;30.92;;;7.25;;
57107;SDS011;42987;52.916;6.542;2023-12-20T07:54:23;26.23;;;6.22;;
57107;SDS011;42987;52.916;6.542;2023-12-20T07:56:49;29.42;;;6.70;;
57107;SDS011;42987;52.916;6.542;2023-12-20T07:59:15;25.00;;;5.53;;
57107;SDS011;42987;52.916;6.542;2023-12-20T08:01:41;28.45;;;6.43;;
57107;SDS011;42987;52.916;6.542;2023-12-20T08:04:07;28.50;;;6.28;;
57107;SDS011;42987;52.916;6.542;2023-12-20T08:06:34;24.08;;;6.05;;
57107;SDS011;42987;52.916;6.542;2023-12-20T08:08:59;25.00;;;6.30;;
57107;SDS011;42987;52.916;6.542;2023-12-20T08:11:25;28.92;;;6.28;;
57107;SDS011;42987;52.916;6.542;2023-12-20T08:13:51;29.75;;;7.43;;
57107;SDS011;42987;52.916;6.542;2023-12-20T08:16:17;28.60;;;6.28;;
57107;SDS011;42987;52.916;6.542;2023-12-20T08:18:43;32.22;;;6.30;;
57107;SDS011;42987;52.916;6.542;2023-12-20T08:21:09;22.70;;;4.97;;
57107;SDS011;42987;52.916;6.542;2023-12-20T08:23:35;25.73;;;5.43;;
57107;SDS011;42987;52.916;6.542;2023-12-20T08:26:05;28.60;;;7.05;;
57107;SDS011;42987;52.916;6.542;2023-12-20T08:28:31;29.58;;;6.95;;
57107;SDS011;42987;52.916;6.542;2023-12-20T08:30:57;30.40;;;7.25;;
57107;SDS011;42987;52.916;6.542;2023-12-20T08:33:23;22.42;;;5.93;;
57107;SDS011;42987;52.916;6.542;2023-12-20T08:35:49;26.60;;;5.93;;
57107;SDS011;42987;52.916;6.542;2023-12-20T08:38:14;22.02;;;5.00;;
57107;SDS011;42987;52.916;6.542;2023-12-20T08:40:41;30.15;;;6.80;;
57107;SDS011;42987;52.916;6.542;2023-12-20T08:43:07;23.63;;;5.93;;
57107;SDS011;42987;52.916;6.542;2023-12-20T08:45:33;24.45;;;6.55;;
57107;SDS011;42987;52.916;6.542;2023-12-20T08:47:58;28.13;;;6.63;;
57107;SDS011;42987;52.916;6.542;2023-12-20T08:50:28;25.20;;;6.07;;
57107;SDS011;42987;52.916;6.542;2023-12-20T08:52:54;27.38;;;5.38;;
57107;SDS011;42987;52.916;6.542;2023-12-20T08:55:20;22.40;;;5.47;;
57107;SDS011;42987;52.916;6.542;2023-12-20T08:57:46;25.38;;;5.43;;
57107;SDS011;42987;52.916;6.542;2023-12-20T09:00:11;22.25;;;5.57;;
57107;SDS011;42987;52.916;6.542;2023-12-20T09:02:38;24.48;;;6.68;;
57107;SDS011;42987;52.916;6.542;2023-12-20T09:05:04;21.13;;;5.28;;
57107;SDS011;42987;52.916;6.542;2023-12-20T09:07:30;24.08;;;4.88;;
57107;SDS011;42987;52.916;6.542;2023-12-20T09:09:57;21.33;;;5.13;;
57107;SDS011;42987;52.916;6.542;2023-12-20T09:12:23;20.75;;;5.55;;
57107;SDS011;42987;52.916;6.542;2023-12-20T09:14:49;21.60;;;5.00;;
57107;SDS011;42987;52.916;6.542;2023-12-20T09:17:16;19.63;;;4.97;;
57107;SDS011;42987;52.916;6.542;2023-12-20T09:19:43;24.63;;;5.55;;
57107;SDS011;42987;52.916;6.542;2023-12-20T09:22:09;22.40;;;5.45;;
57107;SDS011;42987;52.916;6.542;2023-12-20T09:24:35;21.88;;;5.32;;
57107;SDS011;42987;52.916;6.542;2023-12-20T09:27:01;20.25;;;5.00;;
57107;SDS011;42987;52.916;6.542;2023-12-20T09:29:27;22.80;;;4.75;;
57107;SDS011;42987;52.916;6.542;2023-12-20T09:31:53;22.33;;;5.40;;
57107;SDS011;42987;52.916;6.542;2023-12-20T09:34:19;21.27;;;5.07;;
57107;SDS011;42987;52.916;6.542;2023-12-20T09:36:46;19.25;;;4.68;;
57107;SDS011;42987;52.916;6.542;2023-12-20T09:39:16;17.65;;;4.60;;
57107;SDS011;42987;52.916;6.542;2023-12-20T09:42:03;20.70;;;4.03;;
57107;SDS011;42987;52.916;6.542;2023-12-20T09:44:30;18.45;;;3.80;;
57107;SDS011;42987;52.916;6.542;2023-12-20T09:46:57;12.40;;;2.40;;
57107;SDS011;42987;52.916;6.542;2023-12-20T09:49:23;9.68;;;1.95;;
57107;SDS011;42987;52.916;6.542;2023-12-20T09:51:50;8.77;;;2.00;;
57107;SDS011;42987;52.916;6.542;2023-12-20T09:54:17;8.98;;;2.05;;
57107;SDS011;42987;52.916;6.542;2023-12-20T09:56:46;8.32;;;1.60;;
57107;SDS011;42987;52.916;6.542;2023-12-20T09:59:13;8.30;;;1.52;;
57107;SDS011;42987;52.916;6.542;2023-12-20T10:01:39;8.60;;;1.75;;
57107;SDS011;42987;52.916;6.542;2023-12-20T10:04:06;15.07;;;2.00;;
57107;SDS011;42987;52.916;6.542;2023-12-20T10:06:39;8.48;;;1.85;;
57107;SDS011;42987;52.916;6.542;2023-12-20T10:11:36;11.35;;;2.30;;
57107;SDS011;42987;52.916;6.542;2023-12-20T10:14:06;10.73;;;2.07;;
57107;SDS011;42987;52.916;6.542;2023-12-20T10:16:32;13.95;;;2.78;;
57107;SDS011;42987;52.916;6.542;2023-12-20T10:18:59;10.15;;;2.10;;
57107;SDS011;42987;52.916;6.542;2023-12-20T10:21:26;11.35;;;1.95;;
57107;SDS011;42987;52.916;6.542;2023-12-20T10:23:55;9.88;;;2.05;;
57107;SDS011;42987;52.916;6.542;2023-12-20T10:26:22;10.90;;;2.05;;
57107;SDS011;42987;52.916;6.542;2023-12-20T10:28:50;11.77;;;1.70;;
57107;SDS011;42987;52.916;6.542;2023-12-20T10:31:29;12.45;;;2.10;;
57107;SDS011;42987;52.916;6.542;2023-12-20T10:33:57;10.02;;;2.17;;
57107;SDS011;42987;52.916;6.542;2023-12-20T10:36:25;9.77;;;1.83;;
57107;SDS011;42987;52.916;6.542;2023-12-20T10:41:29;12.23;;;1.92;;
57107;SDS011;42987;52.916;6.542;2023-12-20T10:44:00;13.68;;;2.22;;
57107;SDS011;42987;52.916;6.542;2023-12-20T10:46:27;10.15;;;1.95;;
57107;SDS011;42987;52.916;6.542;2023-12-20T10:48:54;12.68;;;2.00;;
57107;SDS011;42987;52.916;6.542;2023-12-20T10:51:22;9.23;;;2.00;;
57107;SDS011;42987;52.916;6.542;2023-12-20T10:53:49;12.27;;;3.15;;
57107;SDS011;42987;52.916;6.542;2023-12-20T10:56:19;11.90;;;2.20;;
57107;SDS011;42987;52.916;6.542;2023-12-20T11:01:13;13.07;;;2.08;;
57107;SDS011;42987;52.916;6.542;2023-12-20T11:03:46;14.10;;;2.53;;
57107;SDS011;42987;52.916;6.542;2023-12-20T11:06:27;11.30;;;2.45;;
57107;SDS011;42987;52.916;6.542;2023-12-20T11:14:47;9.77;;;1.95;;
57107;SDS011;42987;52.916;6.542;2023-12-20T11:17:18;15.15;;;2.45;;
57107;SDS011;42987;52.916;6.542;2023-12-20T11:22:26;11.30;;;2.88;;
57107;SDS011;42987;52.916;6.542;2023-12-20T11:24:56;9.52;;;2.15;;
57107;SDS011;42987;52.916;6.542;2023-12-20T11:27:33;12.18;;;2.40;;
57107;SDS011;42987;52.916;6.542;2023-12-20T11:30:00;12.75;;;2.53;;
57107;SDS011;42987;52.916;6.542;2023-12-20T11:32:35;12.38;;;2.40;;
57107;SDS011;42987;52.916;6.542;2023-12-20T11:37:37;12.45;;;2.40;;
57107;SDS011;42987;52.916;6.542;2023-12-20T11:40:08;15.43;;;2.35;;
57107;SDS011;42987;52.916;6.542;2023-12-20T11:42:50;15.98;;;3.00;;
57107;SDS011;42987;52.916;6.542;2023-12-20T11:45:17;13.02;;;2.75;;
57107;SDS011;42987;52.916;6.542;2023-12-20T11:47:47;17.98;;;3.30;;
57107;SDS011;42987;52.916;6.542;2023-12-20T11:50:18;14.35;;;2.45;;
57107;SDS011;42987;52.916;6.542;2023-12-20T11:52:45;15.40;;;2.55;;
57107;SDS011;42987;52.916;6.542;2023-12-20T11:55:10;15.02;;;2.70;;
57107;SDS011;42987;52.916;6.542;2023-12-20T11:57:36;14.88;;;3.17;;
57107;SDS011;42987;52.916;6.542;2023-12-20T12:00:03;15.70;;;3.08;;
57107;SDS011;42987;52.916;6.542;2023-12-20T12:02:29;13.43;;;2.67;;
57107;SDS011;42987;52.916;6.542;2023-12-20T12:04:55;11.77;;;2.63;;
57107;SDS011;42987;52.916;6.542;2023-12-20T12:07:23;15.38;;;2.97;;
57107;SDS011;42987;52.916;6.542;2023-12-20T12:09:49;13.18;;;2.40;;
57107;SDS011;42987;52.916;6.542;2023-12-20T12:12:18;17.02;;;3.35;;
57107;SDS011;42987;52.916;6.542;2023-12-20T12:14:45;16.10;;;2.90;;
57107;SDS011;42987;52.916;6.542;2023-12-20T12:17:11;14.68;;;3.15;;
57107;SDS011;42987;52.916;6.542;2023-12-20T12:19:38;12.32;;;2.72;;
57107;SDS011;42987;52.916;6.542;2023-12-20T12:22:05;19.40;;;3.13;;
57107;SDS011;42987;52.916;6.542;2023-12-20T12:24:46;13.98;;;3.13;;
57107;SDS011;42987;52.916;6.542;2023-12-20T12:27:15;11.13;;;1.77;;
57107;SDS011;42987;52.916;6.542;2023-12-20T12:29:43;14.73;;;2.75;;
57107;SDS011;42987;52.916;6.542;2023-12-20T12:32:28;10.68;;;2.15;;
57107;SDS011;42987;52.916;6.542;2023-12-20T12:34:54;14.98;;;3.13;;
57107;SDS011;42987;52.916;6.542;2023-12-20T12:37:22;16.88;;;3.35;;
57107;SDS011;42987;52.916;6.542;2023-12-20T12:39:49;16.10;;;2.80;;
57107;SDS011;42987;52.916;6.542;2023-12-20T12:42:14;17.38;;;3.22;;
57107;SDS011;42987;52.916;6.542;2023-12-20T12:44:40;17.05;;;3.10;;
57107;SDS011;42987;52.916;6.542;2023-12-20T12:47:06;13.63;;;2.70;;
57107;SDS011;42987;52.916;6.542;2023-12-20T12:49:33;15.52;;;3.00;;
57107;SDS011;42987;52.916;6.542;2023-12-20T12:51:58;14.63;;;3.30;;
57107;SDS011;42987;52.916;6.542;2023-12-20T12:54:28;12.95;;;2.33;;
57107;SDS011;42987;52.916;6.542;2023-12-20T12:56:53;15.38;;;3.03;;
57107;SDS011;42987;52.916;6.542;2023-12-20T12:59:19;11.63;;;3.25;;
57107;SDS011;42987;52.916;6.542;2023-12-20T13:01:45;15.60;;;3.28;;
57107;SDS011;42987;52.916;6.542;2023-12-20T13:04:11;15.13;;;2.97;;
57107;SDS011;42987;52.916;6.542;2023-12-20T13:06:37;12.98;;;2.70;;
57107;SDS011;42987;52.916;6.542;2023-12-20T13:09:03;14.07;;;2.53;;
57107;SDS011;42987;52.916;6.542;2023-12-20T13:11:30;14.70;;;2.40;;
57107;SDS011;42987;52.916;6.542;2023-12-20T13:13:56;11.43;;;2.15;;
57107;SDS011;42987;52.916;6.542;2023-12-20T13:16:28;13.52;;;2.72;;
57107;SDS011;42987;52.916;6.542;2023-12-20T13:18:54;12.88;;;2.70;;
57107;SDS011;42987;52.916;6.542;2023-12-20T13:21:21;10.18;;;2.25;;
57107;SDS011;42987;52.916;6.542;2023-12-20T13:23:47;14.32;;;3.60;;
57107;SDS011;42987;52.916;6.542;2023-12-20T13:26:12;15.77;;;3.05;;
57107;SDS011;42987;52.916;6.542;2023-12-20T13:28:39;13.27;;;2.33;;
57107;SDS011;42987;52.916;6.542;2023-12-20T13:31:05;14.50;;;2.65;;
57107;SDS011;42987;52.916;6.542;2023-12-20T13:33:31;15.27;;;2.58;;
57107;SDS011;42987;52.916;6.542;2023-12-20T13:35:56;14.50;;;2.88;;
57107;SDS011;42987;52.916;6.542;2023-12-20T13:38:23;10.82;;;1.90;;
57107;SDS011;42987;52.916;6.542;2023-12-20T13:40:49;19.63;;;2.70;;
57107;SDS011;42987;52.916;6.542;2023-12-20T13:43:15;17.48;;;2.80;;
57107;SDS011;42987;52.916;6.542;2023-12-20T13:45:45;16.02;;;2.38;;
57107;SDS011;42987;52.916;6.542;2023-12-20T13:48:11;15.98;;;3.13;;
57107;SDS011;42987;52.916;6.542;2023-12-20T13:50:37;11.98;;;2.15;;
57107;SDS011;42987;52.916;6.542;2023-12-20T13:53:03;17.40;;;3.45;;
57107;SDS011;42987;52.916;6.542;2023-12-20T13:55:29;12.75;;;2.70;;
57107;SDS011;42987;52.916;6.542;2023-12-20T13:57:58;21.77;;;3.30;;
57107;SDS011;42987;52.916;6.542;2023-12-20T14:00:24;20.13;;;3.17;;
57107;SDS011;42987;52.916;6.542;2023-12-20T14:02:50;15.25;;;2.72;;
57107;SDS011;42987;52.916;6.542;2023-12-20T14:05:16;21.65;;;3.30;;
57107;SDS011;42987;52.916;6.542;2023-12-20T14:07:43;14.63;;;2.90;;
57107;SDS011;42987;52.916;6.542;2023-12-20T14:10:12;12.80;;;2.35;;
57107;SDS011;42987;52.916;6.542;2023-12-20T14:12:39;13.68;;;2.65;;
57107;SDS011;42987;52.916;6.542;2023-12-20T14:15:05;19.30;;;2.90;;
57107;SDS011;42987;52.916;6.542;2023-12-20T14:17:39;14.93;;;2.90;;
57107;SDS011;42987;52.916;6.542;2023-12-20T14:20:06;11.65;;;2.78;;
57107;SDS011;42987;52.916;6.542;2023-12-20T14:22:32;12.30;;;2.95;;
57107;SDS011;42987;52.916;6.542;2023-12-20T14:24:58;13.50;;;2.05;;
57107;SDS011;42987;52.916;6.542;2023-12-20T14:27:24;15.52;;;2.60;;
57107;SDS011;42987;52.916;6.542;2023-12-20T14:29:53;11.70;;;2.38;;
57107;SDS011;42987;52.916;6.542;2023-12-20T14:32:19;17.10;;;2.50;;
57107;SDS011;42987;52.916;6.542;2023-12-20T14:34:45;14.43;;;2.25;;
57107;SDS011;42987;52.916;6.542;2023-12-20T14:37:11;13.27;;;2.38;;
57107;SDS011;42987;52.916;6.542;2023-12-20T14:39:37;17.70;;;2.67;;
57107;SDS011;42987;52.916;6.542;2023-12-20T14:42:09;14.98;;;2.65;;
57107;SDS011;42987;52.916;6.542;2023-12-20T14:44:42;17.05;;;2.97;;
57107;SDS011;42987;52.916;6.542;2023-12-20T14:47:08;14.70;;;2.90;;
57107;SDS011;42987;52.916;6.542;2023-12-20T14:49:34;19.42;;;3.05;;
57107;SDS011;42987;52.916;6.542;2023-12-20T14:52:01;15.48;;;2.55;;